sensor_id;sensor_type;location;lat;lon;timestamp;P1;durP1;ratioP1;P2;durP2;ratioP2
27539;SDS011;15906;52.046;4.724;2023-04-06T00:01:38;25.52;;;15.10;;
27539;SDS011;15906;52.046;4.724;2023-04-06T00:04:04;24.63;;;14.60;;
27539;SDS011;15906;52.046;4.724;2023-04-06T00:06:31;24.83;;;13.60;;
27539;SDS011;15906;52.046;4.724;2023-04-06T00:08:57;21.25;;;12.05;;
27539;SDS011;15906;52.046;4.724;2023-04-06T00:11:23;23.85;;;13.85;;
27539;SDS011;15906;52.046;4.724;2023-04-06T00:13:48;22.40;;;14.05;;
27539;SDS011;15906;52.046;4.724;2023-04-06T00:16:14;20.30;;;12.43;;
27539;SDS011;15906;52.046;4.724;2023-04-06T00:18:40;23.30;;;13.35;;
27539;SDS011;15906;52.046;4.724;2023-04-06T00:21:05;22.25;;;12.80;;
27539;SDS011;15906;52.046;4.724;2023-04-06T00:23:31;26.45;;;13.45;;
27539;SDS011;15906;52.046;4.724;2023-04-06T00:25:57;25.38;;;13.05;;
27539;SDS011;15906;52.046;4.724;2023-04-06T00:28:22;21.20;;;12.52;;
27539;SDS011;15906;52.046;4.724;2023-04-06T00:30:54;18.88;;;12.40;;
27539;SDS011;15906;52.046;4.724;2023-04-06T00:33:20;22.08;;;13.27;;
27539;SDS011;15906;52.046;4.724;2023-04-06T00:35:46;21.88;;;12.75;;
27539;SDS011;15906;52.046;4.724;2023-04-06T00:38:12;21.67;;;12.27;;
27539;SDS011;15906;52.046;4.724;2023-04-06T00:40:37;24.08;;;12.68;;
27539;SDS011;15906;52.046;4.724;2023-04-06T00:43:05;21.58;;;12.05;;
27539;SDS011;15906;52.046;4.724;2023-04-06T00:45:30;20.98;;;12.55;;
27539;SDS011;15906;52.046;4.724;2023-04-06T00:47:57;21.70;;;12.18;;
27539;SDS011;15906;52.046;4.724;2023-04-06T00:50:22;19.75;;;11.27;;
27539;SDS011;15906;52.046;4.724;2023-04-06T00:52:48;19.38;;;12.00;;
27539;SDS011;15906;52.046;4.724;2023-04-06T00:55:14;19.65;;;11.48;;
27539;SDS011;15906;52.046;4.724;2023-04-06T00:57:40;19.25;;;11.48;;
27539;SDS011;15906;52.046;4.724;2023-04-06T01:00:05;19.38;;;11.40;;
27539;SDS011;15906;52.046;4.724;2023-04-06T01:02:32;22.98;;;12.95;;
27539;SDS011;15906;52.046;4.724;2023-04-06T01:04:57;17.23;;;11.35;;
27539;SDS011;15906;52.046;4.724;2023-04-06T01:07:23;17.23;;;11.27;;
27539;SDS011;15906;52.046;4.724;2023-04-06T01:09:49;17.75;;;11.60;;
27539;SDS011;15906;52.046;4.724;2023-04-06T01:12:15;20.23;;;12.25;;
27539;SDS011;15906;52.046;4.724;2023-04-06T01:14:41;18.00;;;10.98;;
27539;SDS011;15906;52.046;4.724;2023-04-06T01:17:06;22.67;;;12.38;;
27539;SDS011;15906;52.046;4.724;2023-04-06T01:19:32;18.23;;;12.10;;
27539;SDS011;15906;52.046;4.724;2023-04-06T01:21:58;19.98;;;12.38;;
27539;SDS011;15906;52.046;4.724;2023-04-06T01:24:23;19.48;;;12.10;;
27539;SDS011;15906;52.046;4.724;2023-04-06T01:26:49;21.75;;;12.30;;
27539;SDS011;15906;52.046;4.724;2023-04-06T01:29:14;22.38;;;12.90;;
27539;SDS011;15906;52.046;4.724;2023-04-06T01:31:40;18.10;;;11.85;;
27539;SDS011;15906;52.046;4.724;2023-04-06T01:34:06;21.15;;;12.15;;
27539;SDS011;15906;52.046;4.724;2023-04-06T01:36:31;20.90;;;12.10;;
27539;SDS011;15906;52.046;4.724;2023-04-06T01:38:57;21.30;;;12.45;;
27539;SDS011;15906;52.046;4.724;2023-04-06T01:41:22;20.60;;;12.23;;
27539;SDS011;15906;52.046;4.724;2023-04-06T01:43:48;21.58;;;12.43;;
27539;SDS011;15906;52.046;4.724;2023-04-06T01:46:14;20.23;;;12.43;;
27539;SDS011;15906;52.046;4.724;2023-04-06T01:48:40;20.48;;;12.45;;
27539;SDS011;15906;52.046;4.724;2023-04-06T01:51:06;22.38;;;12.73;;
27539;SDS011;15906;52.046;4.724;2023-04-06T01:53:32;18.63;;;12.60;;
27539;SDS011;15906;52.046;4.724;2023-04-06T01:55:57;21.02;;;12.90;;
27539;SDS011;15906;52.046;4.724;2023-04-06T01:58:23;21.10;;;12.68;;
27539;SDS011;15906;52.046;4.724;2023-04-06T02:00:49;23.02;;;12.73;;
27539;SDS011;15906;52.046;4.724;2023-04-06T02:03:15;21.70;;;12.18;;
27539;SDS011;15906;52.046;4.724;2023-04-06T02:05:41;22.30;;;13.35;;
27539;SDS011;15906;52.046;4.724;2023-04-06T02:08:07;20.30;;;13.30;;
27539;SDS011;15906;52.046;4.724;2023-04-06T02:10:33;27.23;;;12.88;;
27539;SDS011;15906;52.046;4.724;2023-04-06T02:12:59;20.25;;;12.68;;
27539;SDS011;15906;52.046;4.724;2023-04-06T02:15:25;24.75;;;13.30;;
27539;SDS011;15906;52.046;4.724;2023-04-06T02:17:52;22.35;;;13.07;;
27539;SDS011;15906;52.046;4.724;2023-04-06T02:20:18;22.27;;;12.63;;
27539;SDS011;15906;52.046;4.724;2023-04-06T02:22:44;21.17;;;12.77;;
27539;SDS011;15906;52.046;4.724;2023-04-06T02:25:09;24.42;;;13.73;;
27539;SDS011;15906;52.046;4.724;2023-04-06T02:27:35;20.55;;;13.05;;
27539;SDS011;15906;52.046;4.724;2023-04-06T02:30:01;24.25;;;13.60;;
27539;SDS011;15906;52.046;4.724;2023-04-06T02:32:28;20.65;;;12.73;;
27539;SDS011;15906;52.046;4.724;2023-04-06T02:34:53;22.15;;;13.80;;
27539;SDS011;15906;52.046;4.724;2023-04-06T02:37:19;19.23;;;12.98;;
27539;SDS011;15906;52.046;4.724;2023-04-06T02:39:45;23.13;;;14.73;;
27539;SDS011;15906;52.046;4.724;2023-04-06T02:42:11;23.20;;;14.68;;
27539;SDS011;15906;52.046;4.724;2023-04-06T02:44:36;21.17;;;13.75;;
27539;SDS011;15906;52.046;4.724;2023-04-06T02:47:02;23.70;;;14.82;;
27539;SDS011;15906;52.046;4.724;2023-04-06T02:49:27;21.30;;;13.60;;
27539;SDS011;15906;52.046;4.724;2023-04-06T02:51:53;21.70;;;14.00;;
27539;SDS011;15906;52.046;4.724;2023-04-06T02:54:18;20.88;;;14.10;;
27539;SDS011;15906;52.046;4.724;2023-04-06T02:56:44;23.65;;;14.00;;
27539;SDS011;15906;52.046;4.724;2023-04-06T02:59:10;24.58;;;15.05;;
27539;SDS011;15906;52.046;4.724;2023-04-06T03:01:35;21.95;;;14.82;;
27539;SDS011;15906;52.046;4.724;2023-04-06T03:04:01;29.52;;;14.90;;
27539;SDS011;15906;52.046;4.724;2023-04-06T03:06:27;22.83;;;14.52;;
27539;SDS011;15906;52.046;4.724;2023-04-06T03:08:52;25.13;;;14.55;;
27539;SDS011;15906;52.046;4.724;2023-04-06T03:11:18;21.65;;;14.27;;
27539;SDS011;15906;52.046;4.724;2023-04-06T03:13:44;25.10;;;13.95;;
27539;SDS011;15906;52.046;4.724;2023-04-06T03:16:09;26.40;;;15.13;;
27539;SDS011;15906;52.046;4.724;2023-04-06T03:18:35;26.80;;;13.85;;
27539;SDS011;15906;52.046;4.724;2023-04-06T03:21:00;24.10;;;14.85;;
27539;SDS011;15906;52.046;4.724;2023-04-06T03:23:26;25.10;;;15.55;;
27539;SDS011;15906;52.046;4.724;2023-04-06T03:25:52;25.42;;;15.23;;
27539;SDS011;15906;52.046;4.724;2023-04-06T03:28:17;25.10;;;15.95;;
27539;SDS011;15906;52.046;4.724;2023-04-06T03:30:43;26.05;;;15.07;;
27539;SDS011;15906;52.046;4.724;2023-04-06T03:33:08;24.17;;;15.77;;
27539;SDS011;15906;52.046;4.724;2023-04-06T03:35:34;24.20;;;15.23;;
27539;SDS011;15906;52.046;4.724;2023-04-06T03:38:01;26.23;;;16.05;;
27539;SDS011;15906;52.046;4.724;2023-04-06T03:40:27;29.30;;;16.52;;
27539;SDS011;15906;52.046;4.724;2023-04-06T03:42:53;23.75;;;14.40;;
27539;SDS011;15906;52.046;4.724;2023-04-06T03:45:18;27.67;;;16.42;;
27539;SDS011;15906;52.046;4.724;2023-04-06T03:47:44;25.13;;;17.17;;
27539;SDS011;15906;52.046;4.724;2023-04-06T03:50:10;29.63;;;16.10;;
27539;SDS011;15906;52.046;4.724;2023-04-06T03:52:35;28.73;;;16.50;;
27539;SDS011;15906;52.046;4.724;2023-04-06T03:55:01;26.45;;;16.85;;
27539;SDS011;15906;52.046;4.724;2023-04-06T03:57:27;23.70;;;16.00;;
27539;SDS011;15906;52.046;4.724;2023-04-06T03:59:52;25.98;;;16.25;;
27539;SDS011;15906;52.046;4.724;2023-04-06T04:02:18;30.23;;;17.10;;
27539;SDS011;15906;52.046;4.724;2023-04-06T04:04:43;28.57;;;16.63;;
27539;SDS011;15906;52.046;4.724;2023-04-06T04:07:09;27.58;;;16.40;;
27539;SDS011;15906;52.046;4.724;2023-04-06T04:09:36;32.75;;;17.27;;
27539;SDS011;15906;52.046;4.724;2023-04-06T04:12:02;27.10;;;16.45;;
27539;SDS011;15906;52.046;4.724;2023-04-06T04:14:28;28.02;;;16.73;;
27539;SDS011;15906;52.046;4.724;2023-04-06T04:16:53;26.23;;;16.02;;
27539;SDS011;15906;52.046;4.724;2023-04-06T04:19:19;26.38;;;17.20;;
27539;SDS011;15906;52.046;4.724;2023-04-06T04:21:45;29.40;;;16.70;;
27539;SDS011;15906;52.046;4.724;2023-04-06T04:24:11;24.60;;;15.98;;
27539;SDS011;15906;52.046;4.724;2023-04-06T04:26:37;24.95;;;15.77;;
27539;SDS011;15906;52.046;4.724;2023-04-06T04:29:04;25.58;;;15.80;;
27539;SDS011;15906;52.046;4.724;2023-04-06T04:31:29;30.27;;;18.13;;
27539;SDS011;15906;52.046;4.724;2023-04-06T04:33:55;27.13;;;16.05;;
27539;SDS011;15906;52.046;4.724;2023-04-06T04:36:21;28.80;;;17.33;;
27539;SDS011;15906;52.046;4.724;2023-04-06T04:38:46;25.98;;;16.38;;
27539;SDS011;15906;52.046;4.724;2023-04-06T04:41:12;28.52;;;16.55;;
27539;SDS011;15906;52.046;4.724;2023-04-06T04:43:37;27.27;;;16.92;;
27539;SDS011;15906;52.046;4.724;2023-04-06T04:46:04;29.30;;;17.67;;
27539;SDS011;15906;52.046;4.724;2023-04-06T04:48:29;31.25;;;17.08;;
27539;SDS011;15906;52.046;4.724;2023-04-06T04:50:55;33.58;;;17.58;;
27539;SDS011;15906;52.046;4.724;2023-04-06T04:53:21;27.88;;;16.75;;
27539;SDS011;15906;52.046;4.724;2023-04-06T04:55:46;29.83;;;17.42;;
27539;SDS011;15906;52.046;4.724;2023-04-06T04:58:12;28.50;;;17.70;;
27539;SDS011;15906;52.046;4.724;2023-04-06T05:00:41;30.77;;;18.23;;
27539;SDS011;15906;52.046;4.724;2023-04-06T05:03:07;30.55;;;17.95;;
27539;SDS011;15906;52.046;4.724;2023-04-06T05:05:33;29.20;;;17.48;;
27539;SDS011;15906;52.046;4.724;2023-04-06T05:07:59;32.67;;;19.27;;
27539;SDS011;15906;52.046;4.724;2023-04-06T05:10:24;27.85;;;17.52;;
27539;SDS011;15906;52.046;4.724;2023-04-06T05:12:50;30.27;;;18.55;;
27539;SDS011;15906;52.046;4.724;2023-04-06T05:15:15;34.45;;;17.80;;
27539;SDS011;15906;52.046;4.724;2023-04-06T05:17:41;29.63;;;19.17;;
27539;SDS011;15906;52.046;4.724;2023-04-06T05:20:07;27.77;;;17.40;;
27539;SDS011;15906;52.046;4.724;2023-04-06T05:22:33;28.08;;;18.45;;
27539;SDS011;15906;52.046;4.724;2023-04-06T05:24:58;28.90;;;17.98;;
27539;SDS011;15906;52.046;4.724;2023-04-06T05:27:24;28.80;;;17.90;;
27539;SDS011;15906;52.046;4.724;2023-04-06T05:29:50;31.75;;;18.00;;
27539;SDS011;15906;52.046;4.724;2023-04-06T05:32:16;27.75;;;18.55;;
27539;SDS011;15906;52.046;4.724;2023-04-06T05:34:41;32.17;;;18.67;;
27539;SDS011;15906;52.046;4.724;2023-04-06T05:37:07;28.75;;;18.60;;
27539;SDS011;15906;52.046;4.724;2023-04-06T05:39:33;30.20;;;18.30;;
27539;SDS011;15906;52.046;4.724;2023-04-06T05:42:01;33.25;;;18.98;;
27539;SDS011;15906;52.046;4.724;2023-04-06T05:44:28;33.67;;;18.95;;
27539;SDS011;15906;52.046;4.724;2023-04-06T05:46:54;34.30;;;18.90;;
27539;SDS011;15906;52.046;4.724;2023-04-06T05:49:19;30.83;;;18.20;;
27539;SDS011;15906;52.046;4.724;2023-04-06T05:51:45;31.42;;;19.95;;
27539;SDS011;15906;52.046;4.724;2023-04-06T05:54:10;33.30;;;19.95;;
27539;SDS011;15906;52.046;4.724;2023-04-06T05:56:36;30.27;;;18.75;;
27539;SDS011;15906;52.046;4.724;2023-04-06T05:59:01;32.28;;;19.45;;
27539;SDS011;15906;52.046;4.724;2023-04-06T06:01:27;31.67;;;18.92;;
27539;SDS011;15906;52.046;4.724;2023-04-06T06:03:53;33.95;;;18.77;;
27539;SDS011;15906;52.046;4.724;2023-04-06T06:06:19;31.40;;;18.42;;
27539;SDS011;15906;52.046;4.724;2023-04-06T06:08:45;30.65;;;18.25;;
27539;SDS011;15906;52.046;4.724;2023-04-06T06:11:11;33.13;;;19.50;;
27539;SDS011;15906;52.046;4.724;2023-04-06T06:13:36;32.63;;;18.48;;
27539;SDS011;15906;52.046;4.724;2023-04-06T06:16:02;33.95;;;19.42;;
27539;SDS011;15906;52.046;4.724;2023-04-06T06:18:30;30.52;;;18.98;;
27539;SDS011;15906;52.046;4.724;2023-04-06T06:20:56;29.15;;;18.25;;
27539;SDS011;15906;52.046;4.724;2023-04-06T06:23:21;32.95;;;19.35;;
27539;SDS011;15906;52.046;4.724;2023-04-06T06:25:47;30.98;;;19.13;;
27539;SDS011;15906;52.046;4.724;2023-04-06T06:28:13;32.13;;;18.90;;
27539;SDS011;15906;52.046;4.724;2023-04-06T06:30:38;33.40;;;19.33;;
27539;SDS011;15906;52.046;4.724;2023-04-06T06:33:04;29.27;;;18.77;;
27539;SDS011;15906;52.046;4.724;2023-04-06T06:35:30;30.85;;;18.65;;
27539;SDS011;15906;52.046;4.724;2023-04-06T06:37:55;30.17;;;18.27;;
27539;SDS011;15906;52.046;4.724;2023-04-06T06:40:21;29.48;;;17.73;;
27539;SDS011;15906;52.046;4.724;2023-04-06T06:42:48;28.60;;;19.17;;
27539;SDS011;15906;52.046;4.724;2023-04-06T06:45:15;35.75;;;20.70;;
27539;SDS011;15906;52.046;4.724;2023-04-06T06:47:40;35.22;;;19.92;;
27539;SDS011;15906;52.046;4.724;2023-04-06T06:50:06;33.72;;;18.77;;
27539;SDS011;15906;52.046;4.724;2023-04-06T06:52:32;36.55;;;20.42;;
27539;SDS011;15906;52.046;4.724;2023-04-06T06:54:57;34.25;;;20.52;;
27539;SDS011;15906;52.046;4.724;2023-04-06T06:57:23;33.63;;;19.88;;
27539;SDS011;15906;52.046;4.724;2023-04-06T06:59:48;36.30;;;20.45;;
27539;SDS011;15906;52.046;4.724;2023-04-06T07:02:14;32.17;;;19.23;;
27539;SDS011;15906;52.046;4.724;2023-04-06T07:04:40;34.08;;;19.35;;
27539;SDS011;15906;52.046;4.724;2023-04-06T07:07:05;36.28;;;19.08;;
27539;SDS011;15906;52.046;4.724;2023-04-06T07:09:31;31.38;;;19.73;;
27539;SDS011;15906;52.046;4.724;2023-04-06T07:11:57;34.10;;;19.98;;
27539;SDS011;15906;52.046;4.724;2023-04-06T07:14:22;37.53;;;20.63;;
27539;SDS011;15906;52.046;4.724;2023-04-06T07:16:48;32.65;;;19.70;;
27539;SDS011;15906;52.046;4.724;2023-04-06T07:19:15;33.08;;;19.77;;
27539;SDS011;15906;52.046;4.724;2023-04-06T07:21:40;32.58;;;20.05;;
27539;SDS011;15906;52.046;4.724;2023-04-06T07:24:06;32.58;;;21.23;;
27539;SDS011;15906;52.046;4.724;2023-04-06T07:26:31;31.90;;;19.42;;
27539;SDS011;15906;52.046;4.724;2023-04-06T07:28:57;31.95;;;20.67;;
27539;SDS011;15906;52.046;4.724;2023-04-06T07:31:23;33.15;;;19.80;;
27539;SDS011;15906;52.046;4.724;2023-04-06T07:33:48;36.35;;;20.98;;
27539;SDS011;15906;52.046;4.724;2023-04-06T07:36:14;32.25;;;20.52;;
27539;SDS011;15906;52.046;4.724;2023-04-06T07:38:40;34.10;;;20.70;;
27539;SDS011;15906;52.046;4.724;2023-04-06T07:41:06;39.30;;;22.33;;
27539;SDS011;15906;52.046;4.724;2023-04-06T07:43:31;45.00;;;21.75;;
27539;SDS011;15906;52.046;4.724;2023-04-06T07:45:57;39.67;;;20.67;;
27539;SDS011;15906;52.046;4.724;2023-04-06T07:48:24;35.45;;;21.40;;
27539;SDS011;15906;52.046;4.724;2023-04-06T07:50:50;34.97;;;22.02;;
27539;SDS011;15906;52.046;4.724;2023-04-06T07:53:15;38.75;;;22.42;;
27539;SDS011;15906;52.046;4.724;2023-04-06T07:55:41;38.22;;;23.00;;
27539;SDS011;15906;52.046;4.724;2023-04-06T07:58:07;36.97;;;21.75;;
27539;SDS011;15906;52.046;4.724;2023-04-06T08:00:32;39.97;;;22.40;;
27539;SDS011;15906;52.046;4.724;2023-04-06T08:02:58;35.88;;;22.75;;
27539;SDS011;15906;52.046;4.724;2023-04-06T08:05:24;40.13;;;22.30;;
27539;SDS011;15906;52.046;4.724;2023-04-06T08:07:49;36.47;;;22.42;;
27539;SDS011;15906;52.046;4.724;2023-04-06T08:10:15;39.58;;;22.17;;
27539;SDS011;15906;52.046;4.724;2023-04-06T08:12:41;38.60;;;24.17;;
27539;SDS011;15906;52.046;4.724;2023-04-06T08:15:06;39.83;;;23.70;;
27539;SDS011;15906;52.046;4.724;2023-04-06T08:17:32;38.95;;;24.23;;
27539;SDS011;15906;52.046;4.724;2023-04-06T08:19:59;39.45;;;24.50;;
27539;SDS011;15906;52.046;4.724;2023-04-06T08:22:24;41.33;;;23.52;;
27539;SDS011;15906;52.046;4.724;2023-04-06T08:24:50;41.58;;;23.95;;
27539;SDS011;15906;52.046;4.724;2023-04-06T08:27:16;39.33;;;24.38;;
27539;SDS011;15906;52.046;4.724;2023-04-06T08:29:41;43.28;;;24.02;;
27539;SDS011;15906;52.046;4.724;2023-04-06T08:32:07;37.45;;;23.90;;
27539;SDS011;15906;52.046;4.724;2023-04-06T08:34:33;40.58;;;23.92;;
27539;SDS011;15906;52.046;4.724;2023-04-06T08:36:58;43.83;;;24.88;;
27539;SDS011;15906;52.046;4.724;2023-04-06T08:39:24;41.88;;;24.92;;
27539;SDS011;15906;52.046;4.724;2023-04-06T08:41:52;41.20;;;24.80;;
27539;SDS011;15906;52.046;4.724;2023-04-06T08:44:21;39.08;;;24.73;;
27539;SDS011;15906;52.046;4.724;2023-04-06T08:46:47;38.40;;;23.67;;
27539;SDS011;15906;52.046;4.724;2023-04-06T08:49:13;40.85;;;25.42;;
27539;SDS011;15906;52.046;4.724;2023-04-06T08:51:40;43.97;;;25.88;;
27539;SDS011;15906;52.046;4.724;2023-04-06T08:54:07;43.85;;;26.30;;
27539;SDS011;15906;52.046;4.724;2023-04-06T08:56:33;40.97;;;25.02;;
27539;SDS011;15906;52.046;4.724;2023-04-06T08:59:03;39.92;;;23.70;;
27539;SDS011;15906;52.046;4.724;2023-04-06T09:01:29;40.15;;;24.77;;
27539;SDS011;15906;52.046;4.724;2023-04-06T09:03:58;37.13;;;21.92;;
27539;SDS011;15906;52.046;4.724;2023-04-06T09:06:30;35.85;;;23.50;;
27539;SDS011;15906;52.046;4.724;2023-04-06T09:08:55;38.42;;;21.88;;
27539;SDS011;15906;52.046;4.724;2023-04-06T09:11:22;36.65;;;21.55;;
27539;SDS011;15906;52.046;4.724;2023-04-06T09:13:49;40.15;;;22.38;;
27539;SDS011;15906;52.046;4.724;2023-04-06T09:16:16;38.58;;;20.77;;
27539;SDS011;15906;52.046;4.724;2023-04-06T09:18:42;31.85;;;16.75;;
27539;SDS011;15906;52.046;4.724;2023-04-06T09:21:08;39.25;;;20.95;;
27539;SDS011;15906;52.046;4.724;2023-04-06T09:23:35;30.05;;;17.73;;
27539;SDS011;15906;52.046;4.724;2023-04-06T09:26:07;27.33;;;15.65;;
27539;SDS011;15906;52.046;4.724;2023-04-06T09:28:45;28.45;;;14.90;;
27539;SDS011;15906;52.046;4.724;2023-04-06T09:31:30;30.40;;;17.27;;
27539;SDS011;15906;52.046;4.724;2023-04-06T09:33:58;24.05;;;15.38;;
27539;SDS011;15906;52.046;4.724;2023-04-06T09:36:32;29.02;;;14.27;;
27539;SDS011;15906;52.046;4.724;2023-04-06T09:39:00;19.92;;;11.27;;
27539;SDS011;15906;52.046;4.724;2023-04-06T09:41:28;20.95;;;11.10;;
27539;SDS011;15906;52.046;4.724;2023-04-06T09:44:11;18.75;;;10.25;;
27539;SDS011;15906;52.046;4.724;2023-04-06T09:46:38;16.58;;;11.27;;
27539;SDS011;15906;52.046;4.724;2023-04-06T09:49:05;18.95;;;11.48;;
27539;SDS011;15906;52.046;4.724;2023-04-06T09:54:11;16.98;;;11.02;;
27539;SDS011;15906;52.046;4.724;2023-04-06T09:56:47;13.77;;;9.32;;
27539;SDS011;15906;52.046;4.724;2023-04-06T10:01:48;17.15;;;10.13;;
27539;SDS011;15906;52.046;4.724;2023-04-06T10:04:29;15.57;;;10.88;;
27539;SDS011;15906;52.046;4.724;2023-04-06T10:07:18;12.93;;;8.85;;
27539;SDS011;15906;52.046;4.724;2023-04-06T10:09:45;12.68;;;8.23;;
27539;SDS011;15906;52.046;4.724;2023-04-06T10:12:12;14.35;;;9.38;;
27539;SDS011;15906;52.046;4.724;2023-04-06T10:14:38;13.20;;;9.27;;
27539;SDS011;15906;52.046;4.724;2023-04-06T10:17:06;11.93;;;8.45;;
27539;SDS011;15906;52.046;4.724;2023-04-06T10:19:34;13.52;;;9.13;;
27539;SDS011;15906;52.046;4.724;2023-04-06T10:23:08;15.40;;;8.85;;
27539;SDS011;15906;52.046;4.724;2023-04-06T10:25:17;17.17;;;9.07;;
27539;SDS011;15906;52.046;4.724;2023-04-06T10:27:58;13.48;;;9.20;;
27539;SDS011;15906;52.046;4.724;2023-04-06T10:30:29;15.27;;;9.60;;
27539;SDS011;15906;52.046;4.724;2023-04-06T10:32:56;13.68;;;8.82;;
27539;SDS011;15906;52.046;4.724;2023-04-06T10:35:21;11.50;;;8.38;;
27539;SDS011;15906;52.046;4.724;2023-04-06T10:37:49;15.13;;;8.77;;
27539;SDS011;15906;52.046;4.724;2023-04-06T10:42:47;16.80;;;9.60;;
27539;SDS011;15906;52.046;4.724;2023-04-06T10:45:33;14.07;;;8.98;;
27539;SDS011;15906;52.046;4.724;2023-04-06T10:47:58;14.07;;;10.10;;
27539;SDS011;15906;52.046;4.724;2023-04-06T10:50:24;14.57;;;9.88;;
27539;SDS011;15906;52.046;4.724;2023-04-06T10:53:00;15.40;;;9.70;;
27539;SDS011;15906;52.046;4.724;2023-04-06T10:55:29;18.20;;;10.23;;
27539;SDS011;15906;52.046;4.724;2023-04-06T10:57:56;14.15;;;10.15;;
27539;SDS011;15906;52.046;4.724;2023-04-06T11:00:21;15.82;;;9.35;;
27539;SDS011;15906;52.046;4.724;2023-04-06T11:02:47;15.38;;;10.18;;
27539;SDS011;15906;52.046;4.724;2023-04-06T11:05:14;16.98;;;10.93;;
27539;SDS011;15906;52.046;4.724;2023-04-06T11:07:40;13.95;;;10.82;;
27539;SDS011;15906;52.046;4.724;2023-04-06T11:10:07;16.40;;;11.00;;
27539;SDS011;15906;52.046;4.724;2023-04-06T11:12:33;25.88;;;12.35;;
27539;SDS011;15906;52.046;4.724;2023-04-06T11:15:00;16.88;;;11.32;;
27539;SDS011;15906;52.046;4.724;2023-04-06T11:17:29;23.25;;;14.15;;
27539;SDS011;15906;52.046;4.724;2023-04-06T11:19:57;19.83;;;12.70;;
27539;SDS011;15906;52.046;4.724;2023-04-06T11:22:23;16.15;;;11.43;;
27539;SDS011;15906;52.046;4.724;2023-04-06T11:24:49;16.50;;;11.55;;
27539;SDS011;15906;52.046;4.724;2023-04-06T11:27:15;18.98;;;12.20;;
27539;SDS011;15906;52.046;4.724;2023-04-06T11:29:42;16.42;;;11.63;;
27539;SDS011;15906;52.046;4.724;2023-04-06T11:32:08;23.52;;;11.95;;
27539;SDS011;15906;52.046;4.724;2023-04-06T11:34:36;23.13;;;13.13;;
27539;SDS011;15906;52.046;4.724;2023-04-06T11:37:04;22.75;;;12.70;;
27539;SDS011;15906;52.046;4.724;2023-04-06T11:39:37;20.55;;;12.88;;
27539;SDS011;15906;52.046;4.724;2023-04-06T11:42:20;18.63;;;12.90;;
27539;SDS011;15906;52.046;4.724;2023-04-06T11:44:49;18.52;;;12.30;;
27539;SDS011;15906;52.046;4.724;2023-04-06T11:47:16;21.50;;;13.25;;
27539;SDS011;15906;52.046;4.724;2023-04-06T11:49:42;19.90;;;13.77;;
27539;SDS011;15906;52.046;4.724;2023-04-06T11:54:45;20.70;;;13.63;;
27539;SDS011;15906;52.046;4.724;2023-04-06T11:57:14;18.70;;;13.07;;
27539;SDS011;15906;52.046;4.724;2023-04-06T11:59:40;18.40;;;12.15;;
27539;SDS011;15906;52.046;4.724;2023-04-06T12:02:05;19.33;;;12.82;;
27539;SDS011;15906;52.046;4.724;2023-04-06T12:04:31;16.88;;;12.57;;
27539;SDS011;15906;52.046;4.724;2023-04-06T12:06:57;16.48;;;11.68;;
27539;SDS011;15906;52.046;4.724;2023-04-06T12:09:23;18.77;;;12.40;;
27539;SDS011;15906;52.046;4.724;2023-04-06T12:11:48;18.73;;;11.70;;
27539;SDS011;15906;52.046;4.724;2023-04-06T12:14:14;17.33;;;12.02;;
27539;SDS011;15906;52.046;4.724;2023-04-06T12:16:41;18.17;;;11.13;;
27539;SDS011;15906;52.046;4.724;2023-04-06T12:19:06;16.90;;;11.52;;
27539;SDS011;15906;52.046;4.724;2023-04-06T12:21:33;17.55;;;11.57;;
27539;SDS011;15906;52.046;4.724;2023-04-06T12:24:02;17.38;;;11.95;;
27539;SDS011;15906;52.046;4.724;2023-04-06T12:26:29;20.67;;;12.55;;
27539;SDS011;15906;52.046;4.724;2023-04-06T12:28:55;18.60;;;11.43;;
27539;SDS011;15906;52.046;4.724;2023-04-06T12:31:21;17.48;;;11.90;;
27539;SDS011;15906;52.046;4.724;2023-04-06T12:33:48;17.00;;;11.13;;
27539;SDS011;15906;52.046;4.724;2023-04-06T12:36:15;18.15;;;11.77;;
27539;SDS011;15906;52.046;4.724;2023-04-06T12:38:44;17.13;;;11.65;;
27539;SDS011;15906;52.046;4.724;2023-04-06T12:41:10;16.38;;;11.60;;
27539;SDS011;15906;52.046;4.724;2023-04-06T12:43:36;18.92;;;12.52;;
27539;SDS011;15906;52.046;4.724;2023-04-06T12:46:02;23.30;;;13.15;;
27539;SDS011;15906;52.046;4.724;2023-04-06T12:48:28;19.17;;;12.48;;
27539;SDS011;15906;52.046;4.724;2023-04-06T12:50:56;20.33;;;13.63;;
27539;SDS011;15906;52.046;4.724;2023-04-06T12:53:25;17.67;;;12.82;;
27539;SDS011;15906;52.046;4.724;2023-04-06T12:55:51;17.77;;;12.45;;
27539;SDS011;15906;52.046;4.724;2023-04-06T12:58:18;21.17;;;12.70;;
27539;SDS011;15906;52.046;4.724;2023-04-06T13:00:44;17.83;;;12.25;;
27539;SDS011;15906;52.046;4.724;2023-04-06T13:03:10;15.60;;;10.50;;
27539;SDS011;15906;52.046;4.724;2023-04-06T13:05:36;19.08;;;13.40;;
27539;SDS011;15906;52.046;4.724;2023-04-06T13:08:08;23.00;;;14.30;;
27539;SDS011;15906;52.046;4.724;2023-04-06T13:10:33;19.27;;;13.20;;
27539;SDS011;15906;52.046;4.724;2023-04-06T13:12:59;21.88;;;14.05;;
27539;SDS011;15906;52.046;4.724;2023-04-06T13:15:25;20.25;;;13.57;;
27539;SDS011;15906;52.046;4.724;2023-04-06T13:17:50;20.50;;;13.02;;
27539;SDS011;15906;52.046;4.724;2023-04-06T13:20:16;20.80;;;14.18;;
27539;SDS011;15906;52.046;4.724;2023-04-06T13:22:41;22.67;;;13.43;;
27539;SDS011;15906;52.046;4.724;2023-04-06T13:25:07;20.08;;;13.63;;
27539;SDS011;15906;52.046;4.724;2023-04-06T13:27:33;23.75;;;14.65;;
27539;SDS011;15906;52.046;4.724;2023-04-06T13:30:00;19.73;;;14.10;;
27539;SDS011;15906;52.046;4.724;2023-04-06T13:32:26;22.13;;;13.98;;
27539;SDS011;15906;52.046;4.724;2023-04-06T13:34:55;24.25;;;14.52;;
27539;SDS011;15906;52.046;4.724;2023-04-06T13:37:21;20.38;;;14.57;;
27539;SDS011;15906;52.046;4.724;2023-04-06T13:39:46;21.50;;;14.18;;
27539;SDS011;15906;52.046;4.724;2023-04-06T13:42:12;21.50;;;14.50;;
27539;SDS011;15906;52.046;4.724;2023-04-06T13:44:38;19.83;;;14.00;;
27539;SDS011;15906;52.046;4.724;2023-04-06T13:47:03;20.55;;;13.93;;
27539;SDS011;15906;52.046;4.724;2023-04-06T13:49:29;23.08;;;14.68;;
27539;SDS011;15906;52.046;4.724;2023-04-06T13:51:55;21.30;;;14.75;;
27539;SDS011;15906;52.046;4.724;2023-04-06T13:54:20;21.95;;;15.00;;
27539;SDS011;15906;52.046;4.724;2023-04-06T13:56:46;23.55;;;15.18;;
27539;SDS011;15906;52.046;4.724;2023-04-06T13:59:12;20.63;;;13.82;;
27539;SDS011;15906;52.046;4.724;2023-04-06T14:01:37;21.75;;;14.70;;
27539;SDS011;15906;52.046;4.724;2023-04-06T14:04:03;19.70;;;13.52;;
27539;SDS011;15906;52.046;4.724;2023-04-06T14:06:28;18.50;;;13.15;;
27539;SDS011;15906;52.046;4.724;2023-04-06T14:08:54;21.95;;;14.40;;
27539;SDS011;15906;52.046;4.724;2023-04-06T14:11:20;18.50;;;13.75;;
27539;SDS011;15906;52.046;4.724;2023-04-06T14:13:46;22.10;;;13.90;;
27539;SDS011;15906;52.046;4.724;2023-04-06T14:16:11;20.65;;;13.60;;
27539;SDS011;15906;52.046;4.724;2023-04-06T14:18:37;19.75;;;13.57;;
27539;SDS011;15906;52.046;4.724;2023-04-06T14:21:03;19.95;;;13.60;;
27539;SDS011;15906;52.046;4.724;2023-04-06T14:23:28;19.48;;;14.07;;
27539;SDS011;15906;52.046;4.724;2023-04-06T14:26:04;19.50;;;13.60;;
27539;SDS011;15906;52.046;4.724;2023-04-06T14:28:34;20.10;;;14.48;;
27539;SDS011;15906;52.046;4.724;2023-04-06T14:31:01;18.63;;;13.55;;